Time;durP1;ratioP1;P1;durP2;ratioP2;P2;SDS_P1;SDS_P2;PMS_P1;PMS_P2;Temp;Humidity;BMP_temperature;BMP_pressure;BME280_temperature;BME280_humidity;BME280_pressure;Samples;Min_cycle;Max_cycle;Signal;HPM_P1;HPM_P2
2021/12/17 00:04:57;;;;;;;43.42;14.48;;;8.30;99.90;;;;;;5009536;28;20057;-68
2021/12/17 00:07:24;;;;;;;41.17;14.75;;;8.40;99.90;;;;;;5011846;28;20052;-68
2021/12/17 00:09:51;;;;;;;41.47;12.85;;;8.30;99.90;;;;;;5010941;28;20152;-68
2021/12/17 00:12:20;;;;;;;35.28;12.95;;;8.30;99.90;;;;;;5005755;28;20037;-68
2021/12/17 00:14:48;;;;;;;35.10;12.20;;;8.40;99.90;;;;;;5011363;28;20408;-68
2021/12/17 00:17:19;;;;;;;34.72;12.75;;;8.40;99.90;;;;;;5008999;28;20060;-68
2021/12/17 00:50:19;;;;;;;34.03;11.93;;;8.30;99.90;;;;;;4969396;28;20458;-68
2021/12/17 00:52:45;;;;;;;39.70;12.40;;;8.30;99.90;;;;;;5009529;28;20110;-68
2021/12/17 00:55:11;;;;;;;42.95;13.18;;;8.30;99.90;;;;;;5009538;28;20127;-68
2021/12/17 00:57:41;;;;;;;39.15;13.23;;;8.30;99.90;;;;;;5008225;28;20068;-68
2021/12/17 01:00:17;;;;;;;41.15;13.20;;;8.30;99.90;;;;;;5009618;28;20049;-68
2021/12/17 01:02:43;;;;;;;51.03;14.10;;;8.30;99.90;;;;;;5025970;28;20045;-68
2021/12/17 01:05:13;;;;;;;36.33;13.07;;;8.30;99.90;;;;;;5010954;28;20043;-68
2021/12/17 01:07:41;;;;;;;42.92;14.23;;;8.30;99.90;;;;;;5011158;28;20045;-68
2021/12/17 01:10:12;;;;;;;45.70;13.38;;;8.30;99.90;;;;;;5009140;28;20091;-68
2021/12/17 01:12:38;;;;;;;36.15;12.77;;;8.30;99.90;;;;;;5010250;28;20061;-68
2021/12/17 01:15:07;;;;;;;42.75;13.93;;;8.30;99.90;;;;;;5006222;28;20057;-68
2021/12/17 01:17:37;;;;;;;38.13;13.38;;;8.30;99.90;;;;;;5008375;28;20052;-68
2021/12/17 01:25:35;;;;;;;38.55;12.65;;;8.30;99.90;;;;;;5026992;28;20527;-68
2021/12/17 01:36:23;;;;;;;48.33;13.32;;;8.30;99.90;;;;;;5030507;28;20441;-68
2021/12/17 01:43:48;;;;;;;41.70;13.70;;;8.30;99.90;;;;;;5026983;28;20053;-68
2021/12/17 01:46:27;;;;;;;46.67;14.55;;;8.30;99.90;;;;;;5022389;28;20430;-68
2021/12/17 01:59:53;;;;;;;42.03;13.70;;;8.30;99.90;;;;;;5028797;28;20044;-68
2021/12/17 02:02:19;;;;;;;40.10;13.18;;;8.30;99.90;;;;;;5030795;28;20073;-69
2021/12/17 02:04:45;;;;;;;42.60;13.63;;;8.30;99.90;;;;;;5031422;28;20065;-68
2021/12/17 02:07:11;;;;;;;43.22;13.68;;;8.30;99.90;;;;;;5029604;28;20617;-68
2021/12/17 02:10:27;;;;;;;49.53;15.23;;;8.30;99.90;;;;;;5014889;28;20397;-68
2021/12/17 02:19:41;;;;;;;39.78;13.23;;;8.30;99.90;;;;;;5021014;28;20057;-68
2021/12/17 02:32:02;;;;;;;37.22;12.55;;;8.30;99.90;;;;;;5022008;28;20100;-67
2021/12/17 02:37:24;;;;;;;43.50;14.18;;;8.30;99.90;;;;;;5011766;28;20064;-68
2021/12/17 02:40:14;;;;;;;45.35;14.73;;;8.30;99.90;;;;;;5025741;28;20100;-68
2021/12/17 02:48:10;;;;;;;37.58;11.63;;;8.20;99.90;;;;;;5014749;28;20396;-68
2021/12/17 02:50:39;;;;;;;41.35;12.77;;;8.30;99.90;;;;;;5022765;28;20044;-68
2021/12/17 02:53:07;;;;;;;36.00;13.77;;;8.20;99.90;;;;;;5020225;28;20473;-68
2021/12/17 02:55:37;;;;;;;36.88;13.70;;;8.30;99.90;;;;;;5031065;28;20055;-68
2021/12/17 02:58:04;;;;;;;37.35;13.05;;;8.20;99.90;;;;;;5032832;28;20436;-71
2021/12/17 03:00:30;;;;;;;37.15;13.13;;;8.20;99.90;;;;;;5027874;28;20040;-68
2021/12/17 03:02:56;;;;;;;46.78;13.70;;;8.20;99.90;;;;;;5031206;28;20052;-68
2021/12/17 03:05:23;;;;;;;40.47;12.75;;;8.10;99.90;;;;;;5030957;28;20041;-67
2021/12/17 03:07:50;;;;;;;37.65;12.82;;;8.10;99.90;;;;;;5040021;28;20033;-68
2021/12/17 03:10:16;;;;;;;37.00;13.05;;;8.10;99.90;;;;;;5027236;28;20038;-68
2021/12/17 03:12:53;;;;;;;40.05;12.80;;;8.10;99.90;;;;;;5024881;28;20064;-68
2021/12/17 03:15:33;;;;;;;37.45;12.05;;;8.10;99.90;;;;;;5016502;28;20036;-68
2021/12/17 03:23:41;;;;;;;43.83;13.48;;;8.10;99.90;;;;;;5049382;28;20576;-68
2021/12/17 03:26:27;;;;;;;34.72;12.10;;;8.10;99.90;;;;;;5000492;28;20345;-68
2021/12/17 03:28:55;;;;;;;35.60;11.95;;;8.10;99.90;;;;;;5030714;28;20041;-68
2021/12/17 03:31:22;;;;;;;46.28;13.50;;;8.00;99.90;;;;;;5038377;28;20045;-68
2021/12/17 03:33:50;;;;;;;33.35;12.52;;;8.00;99.90;;;;;;5046245;28;20049;-68
2021/12/17 03:36:17;;;;;;;36.97;12.10;;;8.00;99.90;;;;;;5033945;28;20048;-68
2021/12/17 03:38:46;;;;;;;28.92;11.65;;;8.00;99.90;;;;;;5033642;28;20045;-68
2021/12/17 03:41:19;;;;;;;37.05;12.40;;;8.00;99.90;;;;;;5032571;28;20059;-68
2021/12/17 03:43:50;;;;;;;40.53;13.85;;;8.00;99.90;;;;;;5027221;28;20065;-68
2021/12/17 03:46:16;;;;;;;33.47;12.40;;;8.00;99.90;;;;;;5021025;28;20044;-68
2021/12/17 03:48:43;;;;;;;37.13;12.43;;;8.00;99.90;;;;;;5033491;28;20187;-68
2021/12/17 03:51:17;;;;;;;40.75;12.77;;;8.00;99.90;;;;;;5032199;28;20517;-68
2021/12/17 03:53:52;;;;;;;40.40;13.48;;;8.00;99.90;;;;;;5020301;28;20037;-68
2021/12/17 03:56:18;;;;;;;38.95;13.43;;;8.00;99.90;;;;;;5033518;28;20033;-69
2021/12/17 03:58:44;;;;;;;34.03;12.50;;;8.00;99.90;;;;;;5008550;28;20122;-68
2021/12/17 04:01:10;;;;;;;37.10;12.85;;;8.00;99.90;;;;;;5014423;28;20076;-68
2021/12/17 04:03:35;;;;;;;37.40;12.82;;;8.00;99.90;;;;;;5027761;28;20060;-68
2021/12/17 04:06:01;;;;;;;43.47;12.77;;;8.10;99.90;;;;;;5049991;28;20044;-68
2021/12/17 04:08:27;;;;;;;44.25;13.50;;;8.00;99.90;;;;;;5032660;28;20041;-68
2021/12/17 04:11:01;;;;;;;37.22;12.82;;;8.00;99.90;;;;;;5030965;28;20364;-68
2021/12/17 04:13:31;;;;;;;39.63;13.23;;;8.00;99.90;;;;;;5027154;28;20055;-68
2021/12/17 04:16:00;;;;;;;34.63;12.45;;;8.00;99.90;;;;;;5013340;28;20040;-68
2021/12/17 04:18:26;;;;;;;40.60;12.32;;;8.00;99.90;;;;;;5048983;28;20135;-68
2021/12/17 04:20:52;;;;;;;35.67;12.18;;;7.90;99.90;;;;;;5029497;28;20041;-68
2021/12/17 04:23:20;;;;;;;32.38;10.80;;;7.90;99.90;;;;;;5026592;28;20103;-68
2021/12/17 04:25:47;;;;;;;33.13;11.20;;;7.80;99.90;;;;;;5032174;28;20037;-67
2021/12/17 04:28:12;;;;;;;26.73;9.20;;;7.80;99.90;;;;;;5030676;28;20469;-68
2021/12/17 04:30:38;;;;;;;29.05;10.52;;;7.80;99.90;;;;;;5047801;28;20040;-68
2021/12/17 04:33:04;;;;;;;28.42;10.20;;;7.80;99.90;;;;;;5043240;28;20047;-68
2021/12/17 04:35:30;;;;;;;28.23;9.10;;;7.80;99.90;;;;;;5031722;28;20037;-68
2021/12/17 04:37:56;;;;;;;23.10;9.20;;;7.80;99.90;;;;;;5030706;28;20055;-69
2021/12/17 04:40:24;;;;;;;24.10;8.75;;;7.80;99.90;;;;;;5031248;28;20075;-68
2021/12/17 04:45:25;;;;;;;27.83;8.63;;;7.80;99.90;;;;;;5030884;28;20053;-67
2021/12/17 04:58:47;;;;;;;22.92;7.20;;;7.80;99.90;;;;;;5029547;28;20159;-68
2021/12/17 05:01:14;;;;;;;22.25;7.75;;;7.80;99.90;;;;;;5048606;28;20044;-70
2021/12/17 05:03:40;;;;;;;21.05;6.90;;;7.80;99.90;;;;;;5031616;28;20077;-69
2021/12/17 05:06:06;;;;;;;23.10;8.02;;;7.80;99.90;;;;;;5031658;28;20112;-68
2021/12/17 05:08:32;;;;;;;25.98;7.63;;;7.80;99.90;;;;;;5031131;28;20515;-68
2021/12/17 05:19:16;;;;;;;21.35;6.82;;;7.80;99.90;;;;;;5031682;28;20470;-68
2021/12/17 05:21:42;;;;;;;18.40;6.65;;;7.80;99.90;;;;;;5030922;28;20038;-68
2021/12/17 05:24:07;;;;;;;21.42;7.15;;;7.80;99.90;;;;;;5028567;28;20468;-68
2021/12/17 05:26:33;;;;;;;27.42;7.68;;;7.80;99.90;;;;;;5014773;28;20049;-68
2021/12/17 05:28:59;;;;;;;19.05;7.07;;;7.80;99.90;;;;;;5029165;28;20034;-68
2021/12/17 05:31:25;;;;;;;19.08;7.18;;;7.80;99.90;;;;;;5045534;28;20041;-67
2021/12/17 05:33:52;;;;;;;21.25;7.10;;;7.80;99.90;;;;;;5031986;28;20045;-68
2021/12/17 05:36:18;;;;;;;17.95;6.72;;;7.90;99.90;;;;;;5030428;28;20033;-68
2021/12/17 05:38:44;;;;;;;17.77;6.55;;;7.90;99.90;;;;;;5049548;28;20091;-68
2021/12/17 05:41:09;;;;;;;23.20;7.80;;;7.80;99.90;;;;;;5042409;28;20153;-68
2021/12/17 05:43:37;;;;;;;18.02;7.20;;;7.90;99.90;;;;;;5029488;28;20045;-69
2021/12/17 05:48:32;;;;;;;17.80;6.75;;;7.80;99.90;;;;;;5028468;28;20045;-68
2021/12/17 05:51:02;;;;;;;24.25;7.30;;;7.90;99.90;;;;;;5028377;28;20044;-68
2021/12/17 05:53:30;;;;;;;19.45;7.25;;;7.90;99.90;;;;;;5028141;28;20037;-69
2021/12/17 05:55:56;;;;;;;22.42;7.65;;;7.80;99.90;;;;;;5026355;28;20041;-68
2021/12/17 05:58:23;;;;;;;17.17;6.57;;;7.80;99.90;;;;;;5046726;28;20145;-68
2021/12/17 06:00:48;;;;;;;18.50;6.47;;;7.80;99.90;;;;;;5025609;28;20159;-68
2021/12/17 06:03:14;;;;;;;18.08;6.97;;;7.80;99.90;;;;;;5029627;28;20459;-68
2021/12/17 06:05:40;;;;;;;19.33;6.20;;;7.80;99.90;;;;;;5029091;28;20407;-68
2021/12/17 06:08:06;;;;;;;17.77;6.65;;;7.80;99.90;;;;;;5027972;28;20065;-68
2021/12/17 06:10:32;;;;;;;16.25;6.13;;;7.80;99.90;;;;;;5028474;28;20342;-68
2021/12/17 06:12:58;;;;;;;19.45;6.72;;;7.80;99.90;;;;;;5007601;28;20044;-68
2021/12/17 06:15:25;;;;;;;20.23;6.53;;;7.80;99.90;;;;;;5030095;28;20391;-68
2021/12/17 06:17:52;;;;;;;17.17;6.47;;;7.80;99.90;;;;;;5026931;28;20091;-68
2021/12/17 06:20:20;;;;;;;15.60;5.70;;;7.80;99.90;;;;;;5029564;28;20060;-68
2021/12/17 06:22:47;;;;;;;24.80;7.03;;;7.80;99.90;;;;;;5011780;28;20684;-68
2021/12/17 06:25:13;;;;;;;16.15;6.50;;;7.80;99.90;;;;;;5015863;28;20560;-69
2021/12/17 06:27:39;;;;;;;15.68;6.50;;;7.80;99.90;;;;;;5013724;28;20029;-68
2021/12/17 06:30:07;;;;;;;16.33;6.30;;;7.80;99.90;;;;;;5030759;28;20044;-69
2021/12/17 06:32:32;;;;;;;20.10;6.78;;;7.80;99.90;;;;;;5048375;28;20045;-68
2021/12/17 06:34:58;;;;;;;20.05;7.00;;;7.80;99.90;;;;;;5035160;28;20037;-68
2021/12/17 06:37:24;;;;;;;20.10;7.07;;;7.70;99.90;;;;;;5034618;28;20059;-68
2021/12/17 06:39:49;;;;;;;16.67;7.03;;;7.80;99.90;;;;;;5053396;28;20033;-68
2021/12/17 06:42:16;;;;;;;16.00;6.43;;;7.70;99.90;;;;;;5020685;28;20069;-69
2021/12/17 06:44:43;;;;;;;19.98;6.97;;;7.70;99.90;;;;;;5014890;28;20053;-67
2021/12/17 06:47:45;;;;;;;18.08;7.03;;;7.70;99.90;;;;;;5028012;28;20052;-68
2021/12/17 06:55:42;;;;;;;15.73;6.53;;;7.70;99.90;;;;;;5033620;28;20047;-68
2021/12/17 07:20:15;;;;;;;21.48;7.80;;;7.80;99.90;;;;;;5031840;28;20479;-69
2021/12/17 07:32:37;;;;;;;20.73;8.57;;;7.80;99.90;;;;;;5031519;28;20049;-68
2021/12/17 07:40:06;;;;;;;27.65;8.55;;;7.80;99.90;;;;;;5032987;28;20136;-69
2021/12/17 07:42:32;;;;;;;21.45;8.65;;;7.80;99.90;;;;;;5031133;28;20037;-68
2021/12/17 07:44:57;;;;;;;23.58;9.27;;;7.80;99.90;;;;;;5025328;28;20556;-68
2021/12/17 07:47:24;;;;;;;22.13;9.48;;;7.80;99.90;;;;;;5039392;28;20037;-68
2021/12/17 07:49:50;;;;;;;22.80;8.93;;;7.80;99.90;;;;;;5049525;28;20037;-68
2021/12/17 07:52:17;;;;;;;22.05;9.07;;;7.90;99.90;;;;;;5027592;28;20396;-68
2021/12/17 07:54:43;;;;;;;22.30;9.63;;;7.90;99.90;;;;;;5048525;28;20043;-68
2021/12/17 07:57:09;;;;;;;25.13;10.23;;;7.90;99.90;;;;;;5015017;28;20040;-68
2021/12/17 07:59:35;;;;;;;29.02;8.90;;;7.90;99.90;;;;;;5029574;28;20040;-69
2021/12/17 08:02:01;;;;;;;26.15;9.75;;;7.90;99.90;;;;;;5029184;28;20119;-68
2021/12/17 08:04:27;;;;;;;26.30;10.02;;;7.90;99.90;;;;;;5047743;28;20569;-69
2021/12/17 08:06:52;;;;;;;24.38;10.10;;;7.90;99.90;;;;;;5023876;28;20075;-68
2021/12/17 08:09:21;;;;;;;24.70;9.85;;;7.90;99.90;;;;;;5032731;28;20048;-68
2021/12/17 08:11:54;;;;;;;23.40;9.73;;;7.90;99.90;;;;;;5012449;28;20037;-67
2021/12/17 08:14:20;;;;;;;22.67;8.45;;;7.90;99.90;;;;;;5028352;28;20136;-68
2021/12/17 08:16:55;;;;;;;25.90;10.48;;;8.00;99.90;;;;;;5015345;28;20120;-69
2021/12/17 08:24:57;;;;;;;25.90;10.00;;;8.00;99.90;;;;;;5027033;28;20053;-68
2021/12/17 08:27:30;;;;;;;21.95;9.13;;;8.00;99.90;;;;;;5030802;28;21304;-68
2021/12/17 08:30:19;;;;;;;27.50;10.32;;;8.10;99.90;;;;;;5014922;28;20107;-68
2021/12/17 08:32:43;;;;;;;22.50;9.55;;;8.10;99.90;;;;;;5031482;28;20500;-68
2021/12/17 08:35:10;;;;;;;25.55;9.98;;;8.10;99.90;;;;;;5031537;28;20067;-68
2021/12/17 08:37:35;;;;;;;27.35;10.27;;;8.10;99.90;;;;;;5031549;28;20044;-68
2021/12/17 08:40:03;;;;;;;27.58;10.63;;;8.10;99.90;;;;;;5016640;28;20078;-68
2021/12/17 08:42:28;;;;;;;25.75;10.98;;;8.20;99.90;;;;;;5030494;28;20103;-68
2021/12/17 08:44:55;;;;;;;25.55;9.73;;;8.20;99.90;;;;;;5028097;28;20049;-68
2021/12/17 08:47:21;;;;;;;25.48;11.52;;;8.20;99.90;;;;;;5028696;28;20045;-67
2021/12/17 08:49:48;;;;;;;26.27;10.93;;;8.30;99.90;;;;;;5031691;28;20036;-67
2021/12/17 08:52:14;;;;;;;26.52;11.38;;;8.20;99.90;;;;;;5028079;28;20041;-68
2021/12/17 08:54:40;;;;;;;26.23;10.30;;;8.30;99.90;;;;;;5030596;28;20045;-68
2021/12/17 08:57:06;;;;;;;26.55;10.82;;;8.30;99.90;;;;;;5030629;28;20123;-68
2021/12/17 08:59:32;;;;;;;27.35;10.60;;;8.30;99.90;;;;;;5030466;28;20037;-68
2021/12/17 09:01:58;;;;;;;32.85;10.95;;;8.30;99.90;;;;;;5029097;28;20515;-68
2021/12/17 09:04:27;;;;;;;28.90;11.43;;;8.30;99.90;;;;;;5015053;28;20047;-67
2021/12/17 09:06:54;;;;;;;23.30;9.90;;;8.40;99.90;;;;;;5029321;28;20107;-68
2021/12/17 09:09:22;;;;;;;27.15;10.48;;;8.40;99.90;;;;;;5014189;28;20041;-68
2021/12/17 09:11:47;;;;;;;28.50;10.65;;;8.40;99.90;;;;;;5006042;28;20037;-68
2021/12/17 09:14:13;;;;;;;29.75;10.82;;;8.40;99.90;;;;;;5029687;28;20354;-68
2021/12/17 09:16:39;;;;;;;23.27;10.00;;;8.50;99.90;;;;;;5029696;28;20116;-68
2021/12/17 09:19:07;;;;;;;24.63;11.02;;;8.50;99.90;;;;;;5014632;28;20103;-67
2021/12/17 09:21:32;;;;;;;22.27;10.20;;;8.50;99.90;;;;;;5032308;28;20090;-67
2021/12/17 09:23:58;;;;;;;24.60;10.68;;;8.50;99.90;;;;;;5015228;28;20053;-68
2021/12/17 09:26:24;;;;;;;23.80;10.50;;;8.60;99.90;;;;;;5030276;28;20084;-68
2021/12/17 09:28:51;;;;;;;27.25;11.13;;;8.60;99.90;;;;;;5047208;28;20044;-68
2021/12/17 09:31:17;;;;;;;26.40;11.05;;;8.60;99.90;;;;;;5030015;28;20053;-68
2021/12/17 09:33:45;;;;;;;26.17;11.65;;;8.60;99.90;;;;;;5031563;28;20492;-67
2021/12/17 09:36:11;;;;;;;26.95;10.82;;;8.70;99.90;;;;;;5030699;28;20040;-68
2021/12/17 09:38:37;;;;;;;25.30;10.48;;;8.70;99.90;;;;;;5030268;28;20101;-68
2021/12/17 09:41:04;;;;;;;24.50;10.57;;;8.80;99.90;;;;;;5030438;28;20477;-67
2021/12/17 09:43:30;;;;;;;22.63;10.95;;;8.80;99.90;;;;;;5028379;28;20075;-67
2021/12/17 09:45:59;;;;;;;27.40;10.70;;;8.80;99.90;;;;;;5030482;28;20087;-68
2021/12/17 09:48:25;;;;;;;22.20;10.38;;;8.80;99.90;;;;;;5031119;28;20075;-67
2021/12/17 09:50:52;;;;;;;22.30;9.93;;;8.90;99.90;;;;;;5031810;28;20595;-68
2021/12/17 09:53:19;;;;;;;19.88;9.85;;;8.90;99.90;;;;;;5029189;28;20103;-67
2021/12/17 09:55:45;;;;;;;23.98;10.32;;;8.90;99.90;;;;;;5029657;28;20044;-67
2021/12/17 09:58:11;;;;;;;25.92;10.40;;;8.90;99.90;;;;;;5046224;28;20064;-67
2021/12/17 10:00:36;;;;;;;21.63;10.10;;;8.90;99.90;;;;;;5028781;28;20074;-68
2021/12/17 10:03:05;;;;;;;21.75;10.40;;;8.90;99.90;;;;;;5034379;28;20472;-67
2021/12/17 10:05:34;;;;;;;21.92;10.10;;;8.90;99.90;;;;;;5034926;28;20040;-67
2021/12/17 10:08:04;;;;;;;21.02;10.20;;;8.90;99.90;;;;;;5034121;28;20056;-68
2021/12/17 10:10:39;;;;;;;23.05;10.23;;;8.90;99.90;;;;;;5035491;28;20060;-67
2021/12/17 10:13:13;;;;;;;21.48;10.38;;;8.90;99.90;;;;;;5032386;28;20179;-67
2021/12/17 10:15:42;;;;;;;21.92;10.23;;;8.90;99.90;;;;;;5028319;28;20037;-67
2021/12/17 10:18:08;;;;;;;25.08;11.02;;;9.00;99.90;;;;;;5034039;28;20381;-67
2021/12/17 10:20:41;;;;;;;23.08;10.10;;;9.00;99.90;;;;;;5029650;28;20048;-68
2021/12/17 10:23:09;;;;;;;23.77;10.65;;;9.00;99.90;;;;;;5018454;28;20073;-68
2021/12/17 10:25:42;;;;;;;26.80;10.98;;;9.00;99.90;;;;;;5013846;28;20095;-68
2021/12/17 10:28:08;;;;;;;22.25;9.95;;;9.00;99.90;;;;;;5010726;28;20041;-68
2021/12/17 10:30:37;;;;;;;20.42;10.02;;;9.00;99.90;;;;;;5012906;28;20095;-67
2021/12/17 10:33:05;;;;;;;21.80;10.00;;;9.00;99.90;;;;;;5031168;28;20493;-67
2021/12/17 10:35:33;;;;;;;23.00;10.20;;;9.00;99.90;;;;;;5014716;28;20041;-67
2021/12/17 10:38:03;;;;;;;22.20;10.27;;;9.00;99.90;;;;;;5013970;28;20041;-67
2021/12/17 10:40:35;;;;;;;22.88;10.52;;;9.00;99.90;;;;;;5014784;28;20045;-66
2021/12/17 10:43:12;;;;;;;20.38;9.98;;;9.00;99.90;;;;;;5030764;28;20042;-67
2021/12/17 10:45:46;;;;;;;21.55;9.70;;;9.00;99.90;;;;;;4995205;28;20068;-68
2021/12/17 10:48:24;;;;;;;23.85;9.77;;;9.00;99.90;;;;;;4997242;28;20038;-67
2021/12/17 10:51:01;;;;;;;25.38;11.05;;;9.10;99.90;;;;;;5008451;28;20113;-67
2021/12/17 10:53:27;;;;;;;25.10;10.88;;;9.10;99.90;;;;;;5014144;28;20132;-67
2021/12/17 10:55:55;;;;;;;25.02;10.73;;;9.10;99.90;;;;;;5013736;28;20478;-68
2021/12/17 10:58:22;;;;;;;23.48;10.13;;;9.20;99.90;;;;;;5012488;28;20072;-68
2021/12/17 11:00:55;;;;;;;22.30;9.52;;;9.20;99.90;;;;;;5010068;28;20284;-68
2021/12/17 11:03:21;;;;;;;22.55;9.63;;;9.20;99.90;;;;;;5014651;28;20045;-68
2021/12/17 11:05:46;;;;;;;21.20;9.27;;;9.20;99.90;;;;;;5006239;28;20037;-67
2021/12/17 11:08:33;;;;;;;24.55;9.32;;;9.20;99.90;;;;;;4995463;28;20044;-68
2021/12/17 11:11:08;;;;;;;19.35;9.38;;;9.20;99.90;;;;;;5000212;28;20048;-68
2021/12/17 11:13:35;;;;;;;22.00;10.23;;;9.20;99.90;;;;;;4999353;28;20046;-68
2021/12/17 11:16:01;;;;;;;23.88;10.13;;;9.30;99.90;;;;;;5012172;28;20045;-67
2021/12/17 11:18:27;;;;;;;21.65;10.63;;;9.40;99.90;;;;;;5013388;28;20057;-67
2021/12/17 11:20:55;;;;;;;20.90;9.60;;;9.40;99.90;;;;;;5013309;28;20045;-68
2021/12/17 11:23:23;;;;;;;21.08;9.57;;;9.50;99.90;;;;;;4992817;28;20100;-67
2021/12/17 11:25:50;;;;;;;22.00;9.65;;;9.50;99.90;;;;;;5032165;28;20045;-67
2021/12/17 11:28:16;;;;;;;19.88;9.73;;;9.60;99.90;;;;;;5008007;28;20049;-67
2021/12/17 11:30:44;;;;;;;18.10;9.90;;;9.60;99.90;;;;;;5008338;28;20474;-67
2021/12/17 11:33:11;;;;;;;18.40;10.02;;;9.60;99.90;;;;;;5011865;28;20045;-68
2021/12/17 11:35:39;;;;;;;20.70;8.88;;;9.60;99.90;;;;;;4999618;28;20128;-67
2021/12/17 11:38:19;;;;;;;23.25;9.43;;;9.60;99.90;;;;;;5028676;28;20126;-67
2021/12/17 11:40:49;;;;;;;20.08;9.88;;;9.60;99.90;;;;;;4994509;28;20103;-67
2021/12/17 11:43:47;;;;;;;21.08;9.98;;;9.60;99.90;;;;;;5010490;28;20038;-67
2021/12/17 11:46:13;;;;;;;19.00;9.70;;;9.60;99.90;;;;;;5029081;28;20132;-67
2021/12/17 11:48:49;;;;;;;20.58;10.07;;;9.60;99.90;;;;;;5012660;28;20633;-67
2021/12/17 11:51:17;;;;;;;18.92;8.80;;;9.60;99.90;;;;;;4993454;28;20369;-67
2021/12/17 11:53:55;;;;;;;16.15;8.57;;;9.60;99.90;;;;;;5012155;28;20033;-67
2021/12/17 11:56:41;;;;;;;15.88;8.13;;;9.60;99.90;;;;;;5009933;28;20124;-67
2021/12/17 11:59:30;;;;;;;16.00;8.18;;;9.60;99.90;;;;;;5010895;28;20057;-67
2021/12/17 12:02:16;;;;;;;17.00;8.73;;;9.60;99.90;;;;;;5013034;28;20049;-68
2021/12/17 12:04:53;;;;;;;16.02;8.18;;;9.70;99.90;;;;;;5013154;28;20128;-67
2021/12/17 12:07:24;;;;;;;16.27;7.50;;;9.60;99.90;;;;;;5012488;28;20041;-67
2021/12/17 12:09:57;;;;;;;14.00;7.38;;;9.60;99.90;;;;;;5012850;28;20106;-67
2021/12/17 12:12:30;;;;;;;14.20;6.70;;;9.60;99.90;;;;;;5025407;28;20042;-68
2021/12/17 12:15:25;;;;;;;12.43;6.47;;;9.60;99.90;;;;;;5010531;28;20117;-68
2021/12/17 12:18:09;;;;;;;16.60;7.10;;;9.60;99.90;;;;;;5007473;28;20042;-67
2021/12/17 12:20:47;;;;;;;8.43;4.63;;;9.60;99.90;;;;;;5012115;28;20444;-68
2021/12/17 12:23:33;;;;;;;7.75;4.95;;;9.70;99.90;;;;;;4995231;28;20126;-68
2021/12/17 12:26:04;;;;;;;9.07;4.60;;;9.70;99.90;;;;;;4994074;28;20128;-67
2021/12/17 12:28:45;;;;;;;7.60;3.72;;;9.70;99.90;;;;;;5005443;28;20047;-68
2021/12/17 12:31:17;;;;;;;7.13;3.95;;;9.70;99.90;;;;;;4994427;28;20501;-67
2021/12/17 12:34:04;;;;;;;8.70;3.72;;;9.70;99.90;;;;;;5024171;28;20053;-67
2021/12/17 12:36:49;;;;;;;6.53;3.70;;;9.60;99.90;;;;;;5010578;28;20121;-67
2021/12/17 12:39:16;;;;;;;9.18;3.97;;;9.60;99.90;;;;;;5008876;28;20051;-67
2021/12/17 12:42:16;;;;;;;9.35;4.10;;;9.60;99.90;;;;;;5028451;28;20034;-67
2021/12/17 12:44:42;;;;;;;7.85;3.95;;;9.70;99.90;;;;;;5006984;28;20091;-67
2021/12/17 12:47:20;;;;;;;8.02;4.05;;;9.70;99.90;;;;;;5025638;28;20045;-66
2021/12/17 12:49:49;;;;;;;9.13;4.10;;;9.70;99.90;;;;;;5025469;28;20034;-67
2021/12/17 12:52:15;;;;;;;7.80;4.47;;;9.70;99.90;;;;;;5011535;28;20030;-66
2021/12/17 12:54:40;;;;;;;7.78;4.10;;;9.70;99.90;;;;;;5007113;28;20038;-67
2021/12/17 12:57:06;;;;;;;12.70;4.32;;;9.70;99.90;;;;;;5027836;28;20099;-66
2021/12/17 12:59:32;;;;;;;6.00;3.60;;;9.70;99.90;;;;;;5020229;28;20046;-66
2021/12/17 13:01:57;;;;;;;6.65;3.75;;;9.70;99.90;;;;;;5001900;28;20685;-67
2021/12/17 13:04:29;;;;;;;5.75;4.00;;;9.70;99.90;;;;;;4998037;28;20124;-67
2021/12/17 13:06:54;;;;;;;5.65;3.67;;;9.70;99.90;;;;;;5012609;28;20053;-67
2021/12/17 13:09:29;;;;;;;7.65;3.75;;;9.70;99.90;;;;;;5017604;28;20135;-67
2021/12/17 13:11:54;;;;;;;6.32;3.55;;;9.70;99.90;;;;;;5009060;28;20111;-67
2021/12/17 13:14:24;;;;;;;6.57;3.42;;;9.70;99.90;;;;;;5008094;28;20045;-67
2021/12/17 13:17:17;;;;;;;5.95;3.30;;;9.70;99.90;;;;;;5006504;28;20068;-67
2021/12/17 13:22:53;;;;;;;3.90;2.72;;;9.60;99.90;;;;;;5009048;28;20061;-67
2021/12/17 13:25:26;;;;;;;3.70;2.45;;;9.60;99.90;;;;;;5006829;28;20049;-67
2021/12/17 13:27:55;;;;;;;5.13;2.80;;;9.70;99.90;;;;;;4993201;28;20037;-67
2021/12/17 13:30:25;;;;;;;5.38;2.75;;;9.70;99.90;;;;;;5024255;28;20049;-67
2021/12/17 13:32:52;;;;;;;3.67;2.60;;;9.70;99.90;;;;;;5011288;28;20049;-67
2021/12/17 13:35:18;;;;;;;3.42;2.10;;;9.60;99.90;;;;;;5009440;28;20398;-67
2021/12/17 13:37:44;;;;;;;5.28;2.35;;;9.70;99.90;;;;;;5011041;28;20045;-66
2021/12/17 13:40:12;;;;;;;3.53;2.00;;;9.60;99.90;;;;;;5011095;28;20041;-67
2021/12/17 13:42:45;;;;;;;3.40;1.98;;;9.60;99.90;;;;;;4991636;28;20037;-67
2021/12/17 13:45:21;;;;;;;3.33;1.92;;;9.60;99.90;;;;;;5006442;28;20120;-67
2021/12/17 13:47:50;;;;;;;4.53;1.98;;;9.60;99.90;;;;;;5008122;28;20073;-66
2021/12/17 13:50:29;;;;;;;3.72;1.70;;;9.60;99.90;;;;;;5010795;28;20072;-67
2021/12/17 13:52:58;;;;;;;4.22;2.17;;;9.50;99.90;;;;;;5005735;28;20056;-66
2021/12/17 13:55:39;;;;;;;4.30;2.03;;;9.50;99.90;;;;;;5010454;28;20370;-66
2021/12/17 13:58:13;;;;;;;3.42;2.30;;;9.50;99.90;;;;;;4999964;28;20042;-66
2021/12/17 14:00:52;;;;;;;4.03;2.35;;;9.50;99.90;;;;;;5047494;28;20123;-67
2021/12/17 14:03:20;;;;;;;4.00;2.38;;;9.50;99.90;;;;;;5017306;28;20466;-66
2021/12/17 14:05:58;;;;;;;4.47;2.63;;;9.40;99.90;;;;;;5009682;28;20050;-66
2021/12/17 14:08:24;;;;;;;5.85;3.10;;;9.40;99.90;;;;;;5009455;28;20045;-67
2021/12/17 14:10:54;;;;;;;4.60;3.03;;;9.40;99.90;;;;;;5009113;28;20041;-66
2021/12/17 14:13:22;;;;;;;7.88;3.38;;;9.40;99.90;;;;;;5008903;28;20079;-66
2021/12/17 14:15:50;;;;;;;5.47;3.15;;;9.40;99.90;;;;;;5008467;28;20405;-67
2021/12/17 14:18:19;;;;;;;8.10;3.65;;;9.30;99.90;;;;;;5028444;28;20055;-66
2021/12/17 14:20:45;;;;;;;6.30;3.25;;;9.30;99.90;;;;;;5005593;28;20115;-68
2021/12/17 14:23:17;;;;;;;6.15;3.55;;;9.40;99.90;;;;;;5002594;28;20062;-67
2021/12/17 14:25:47;;;;;;;6.30;3.88;;;9.40;99.90;;;;;;5020285;28;20102;-66
2021/12/17 14:28:16;;;;;;;7.88;3.78;;;9.30;99.90;;;;;;5039406;28;20532;-67
2021/12/17 14:30:54;;;;;;;7.57;3.95;;;9.30;99.90;;;;;;5009637;28;20818;-67
2021/12/17 14:33:22;;;;;;;7.57;4.18;;;9.30;99.90;;;;;;5029160;28;20060;-66
2021/12/17 14:35:55;;;;;;;13.73;4.03;;;9.30;99.90;;;;;;5028451;28;20527;-66
2021/12/17 14:38:45;;;;;;;11.65;4.55;;;9.30;99.90;;;;;;5011244;28;20045;-67
2021/12/17 14:41:16;;;;;;;7.57;4.28;;;9.30;99.90;;;;;;5009189;28;20046;-66
2021/12/17 14:43:52;;;;;;;6.85;3.88;;;9.30;99.90;;;;;;5008877;28;20052;-67
2021/12/17 14:46:23;;;;;;;6.35;4.13;;;9.30;99.90;;;;;;5010316;28;20080;-66
2021/12/17 14:58:45;;;;;;;7.07;4.25;;;9.30;99.90;;;;;;5012587;28;20054;-67
2021/12/17 15:06:02;;;;;;;7.90;4.82;;;9.20;99.90;;;;;;5020457;28;20045;-66
2021/12/17 15:08:28;;;;;;;8.07;4.53;;;9.20;99.90;;;;;;4977959;28;20149;-66
2021/12/17 15:10:55;;;;;;;8.23;4.93;;;9.20;99.90;;;;;;5013173;28;20049;-66
2021/12/17 15:13:20;;;;;;;8.35;4.60;;;9.10;99.90;;;;;;5030505;28;20065;-67
2021/12/17 15:15:46;;;;;;;8.82;4.90;;;9.20;99.90;;;;;;5011394;28;20410;-66
2021/12/17 15:18:15;;;;;;;8.68;4.97;;;9.20;99.90;;;;;;4997959;28;20045;-66
2021/12/17 15:20:45;;;;;;;8.85;4.95;;;9.20;99.90;;;;;;5010365;28;20587;-67
2021/12/17 15:23:11;;;;;;;7.78;4.95;;;9.20;99.90;;;;;;5033147;28;20547;-66
2021/12/17 15:25:39;;;;;;;8.27;4.80;;;9.20;99.90;;;;;;5030095;28;20365;-67
2021/12/17 15:28:05;;;;;;;8.60;4.50;;;9.20;99.90;;;;;;5007538;28;20385;-66
2021/12/17 15:30:38;;;;;;;9.02;4.90;;;9.20;99.90;;;;;;5009911;28;20049;-67
2021/12/17 15:33:05;;;;;;;7.40;4.63;;;9.20;99.90;;;;;;5030887;28;20081;-67
2021/12/17 15:35:30;;;;;;;6.80;4.35;;;9.10;99.90;;;;;;5011832;28;20033;-67
2021/12/17 15:37:58;;;;;;;7.63;4.57;;;9.20;99.90;;;;;;5011111;28;20048;-67
2021/12/17 15:40:24;;;;;;;6.60;4.30;;;9.20;99.90;;;;;;5010890;28;20404;-71
2021/12/17 15:42:50;;;;;;;8.88;5.00;;;9.20;99.90;;;;;;4993195;28;20037;-68
2021/12/17 15:45:17;;;;;;;8.23;5.00;;;9.20;99.90;;;;;;5006813;28;20073;-67
2021/12/17 15:47:43;;;;;;;8.02;4.80;;;9.20;99.90;;;;;;5013172;28;20124;-67
2021/12/17 15:50:12;;;;;;;7.57;4.70;;;9.10;99.90;;;;;;5012515;28;20075;-67
2021/12/17 15:52:45;;;;;;;7.35;4.78;;;9.10;99.90;;;;;;4993579;28;20077;-67
2021/12/17 15:55:12;;;;;;;7.65;4.35;;;9.10;99.90;;;;;;4983258;28;20029;-67
2021/12/17 15:57:38;;;;;;;8.07;5.03;;;9.20;99.90;;;;;;4992450;28;20107;-67
2021/12/17 16:00:05;;;;;;;9.38;4.82;;;9.10;99.90;;;;;;4993477;28;20045;-67
2021/12/17 16:02:30;;;;;;;10.02;5.72;;;9.10;99.90;;;;;;5011281;28;20048;-67